Time;durP1;ratioP1;P1;durP2;ratioP2;P2;SDS_P1;SDS_P2;PMS_P1;PMS_P2;Temp;Humidity;BMP_temperature;BMP_pressure;BME280_temperature;BME280_humidity;BME280_pressure;Samples;Min_cycle;Max_cycle;Signal;HPM_P1;HPM_P2
2022/10/31 00:02:26;;;;;;;;;;;;;13.50;98017.60;;;;109054;1264;41145;-57
2022/10/31 00:04:56;;;;;;;;;;;;;13.50;98010.00;;;;109041;1266;41144;-57
2022/10/31 00:07:26;;;;;;;;;;;;;13.50;98008.80;;;;109064;1268;42193;-57
2022/10/31 00:09:56;;;;;;;;;;;;;13.50;98004.20;;;;109065;1268;41604;-57
2022/10/31 00:12:26;;;;;;;;;;;;;13.50;98004.80;;;;108993;1268;41406;-57
2022/10/31 00:14:57;;;;;;;;;;;;;13.40;98000.40;;;;109016;1268;41150;-56
2022/10/31 00:17:27;;;;;;;;;;;;;13.40;98000.80;;;;108997;1269;41147;-56
2022/10/31 00:19:56;;;;;;;;;;;;;13.40;97998.40;;;;109024;1268;41600;-56
2022/10/31 00:22:26;;;;;;;;;;;;;13.40;98007.20;;;;109056;1268;41156;-56
2022/10/31 00:24:57;;;;;;;;;;;;;13.40;98007.00;;;;109049;1268;41715;-57
2022/10/31 00:27:28;;;;;;;;;;;;;13.38;98011.40;;;;109008;1268;41512;-57
2022/10/31 00:29:59;;;;;;;;;;;;;13.30;98008.60;;;;109021;1268;41159;-57
2022/10/31 00:32:31;;;;;;;;;;;;;13.30;98001.80;;;;109026;1267;41143;-57
2022/10/31 00:35:00;;;;;;;;;;;;;13.30;98003.40;;;;109015;1268;41160;-57
2022/10/31 00:37:30;;;;;;;;;;;;;13.30;98000.60;;;;109045;1268;41159;-57
2022/10/31 00:40:01;;;;;;;;;;;;;13.30;98000.00;;;;108992;1268;42801;-57
2022/10/31 00:42:31;;;;;;;;;;;;;13.30;98001.20;;;;108965;1265;41128;-56
2022/10/31 00:45:02;;;;;;;;;;;;;13.30;97994.60;;;;108989;1268;41191;-57
2022/10/31 00:47:32;;;;;;;;;;;;;13.20;97995.00;;;;109005;1268;41653;-57
2022/10/31 00:50:03;;;;;;;;;;;;;13.20;97996.40;;;;109039;1268;42854;-57
2022/10/31 00:52:33;;;;;;;;;;;;;13.20;97996.60;;;;109032;1268;42155;-57
2022/10/31 00:55:04;;;;;;;;;;;;;13.20;97996.40;;;;109028;1268;41143;-57
2022/10/31 00:57:33;;;;;;;;;;;;;13.10;97994.80;;;;109061;1268;41392;-57
2022/10/31 01:00:06;;;;;;;;;;;;;13.10;98000.60;;;;109004;1266;41177;-57
2022/10/31 01:02:38;;;;;;;;;;;;;13.10;98001.20;;;;108883;1268;41143;-58
2022/10/31 01:05:10;;;;;;;;;;;;;13.10;97996.00;;;;108867;1266;41356;-57
2022/10/31 01:07:41;;;;;;;;;;;;;13.10;97997.60;;;;109038;1266;41228;-57
2022/10/31 01:10:12;;;;;;;;;;;;;13.10;97991.20;;;;109049;1268;41327;-57
2022/10/31 01:12:45;;;;;;;;;;;;;13.10;97993.00;;;;109048;1268;41138;-57
2022/10/31 01:15:19;;;;;;;;;;;;;13.10;98002.40;;;;108942;1268;41163;-57
2022/10/31 01:17:51;;;;;;;;;;;;;13.10;97999.20;;;;109035;1268;41188;-57
2022/10/31 01:20:22;;;;;;;;;;;;;13.10;97990.60;;;;108864;1268;41243;-57
2022/10/31 01:22:53;;;;;;;;;;;;;13.10;97993.80;;;;109060;1268;41723;-57
2022/10/31 01:25:25;;;;;;;;;;;;;13.10;97992.20;;;;109038;1268;41156;-56
2022/10/31 01:27:56;;;;;;;;;;;;;13.10;97989.20;;;;109010;1261;41148;-58
2022/10/31 01:30:26;;;;;;;;;;;;;13.16;97989.00;;;;109086;1268;41156;-57
2022/10/31 01:32:59;;;;;;;;;;;;;13.20;97990.00;;;;109052;1264;42246;-62
2022/10/31 01:35:30;;;;;;;;;;;;;13.20;97994.00;;;;108895;1268;41762;-58
2022/10/31 01:38:00;;;;;;;;;;;;;13.20;97990.80;;;;109017;1268;41469;-57
2022/10/31 01:40:31;;;;;;;;;;;;;13.20;97989.60;;;;108893;1268;41144;-60
2022/10/31 01:43:01;;;;;;;;;;;;;13.20;97989.60;;;;108959;1269;41462;-58
2022/10/31 01:45:31;;;;;;;;;;;;;13.20;97992.00;;;;108981;1269;41249;-57
2022/10/31 01:48:04;;;;;;;;;;;;;13.20;97992.20;;;;109049;1266;41173;-57
2022/10/31 01:50:35;;;;;;;;;;;;;13.20;97994.60;;;;109024;1268;41315;-57
2022/10/31 01:53:06;;;;;;;;;;;;;13.20;97991.80;;;;109041;1268;41614;-57
2022/10/31 01:55:36;;;;;;;;;;;;;13.20;97992.60;;;;109036;1262;41602;-56
2022/10/31 01:58:07;;;;;;;;;;;;;13.20;97994.40;;;;109062;1267;41231;-57
2022/10/31 02:00:39;;;;;;;;;;;;;13.20;97993.00;;;;109025;1268;41159;-57
2022/10/31 02:03:10;;;;;;;;;;;;;13.20;97992.40;;;;108999;1268;41144;-57
2022/10/31 02:05:39;;;;;;;;;;;;;13.20;97987.00;;;;109032;1268;42226;-56
2022/10/31 02:08:13;;;;;;;;;;;;;13.20;97989.00;;;;108964;1268;41159;-56
2022/10/31 02:10:44;;;;;;;;;;;;;13.20;97996.00;;;;109080;1263;41244;-57
2022/10/31 02:13:15;;;;;;;;;;;;;13.20;97994.20;;;;108828;1271;41156;-58
2022/10/31 02:15:48;;;;;;;;;;;;;13.20;97997.40;;;;108901;1268;41218;-56
2022/10/31 02:18:19;;;;;;;;;;;;;13.20;97998.20;;;;108870;1266;41180;-57
2022/10/31 02:20:50;;;;;;;;;;;;;13.20;97998.20;;;;109064;1266;41402;-57
2022/10/31 02:23:36;;;;;;;;;;;;;13.20;97997.80;;;;109029;1268;41602;-58
2022/10/31 02:26:08;;;;;;;;;;;;;13.20;97996.20;;;;109045;1258;41909;-57
2022/10/31 02:28:58;;;;;;;;;;;;;13.20;97999.00;;;;108891;1268;41594;-56
2022/10/31 02:31:39;;;;;;;;;;;;;13.20;98000.20;;;;109013;1266;41595;-58
2022/10/31 02:34:30;;;;;;;;;;;;;13.20;97996.60;;;;108971;1268;41240;-58
2022/10/31 02:37:06;;;;;;;;;;;;;13.20;98000.60;;;;109050;1267;41695;-57
2022/10/31 02:39:55;;;;;;;;;;;;;13.20;97998.00;;;;108979;1268;41214;-57
2022/10/31 02:42:47;;;;;;;;;;;;;13.10;97995.80;;;;109048;1268;41609;-57
2022/10/31 02:45:29;;;;;;;;;;;;;13.10;97999.60;;;;109019;1267;41156;-57
2022/10/31 02:48:00;;;;;;;;;;;;;13.10;97998.00;;;;108843;1268;41746;-57
2022/10/31 02:50:31;;;;;;;;;;;;;13.10;97999.40;;;;108822;1268;41157;-57
2022/10/31 02:53:01;;;;;;;;;;;;;13.10;98007.00;;;;108983;1266;41690;-57
2022/10/31 02:55:34;;;;;;;;;;;;;13.10;98003.20;;;;108986;1268;41160;-57
2022/10/31 02:58:08;;;;;;;;;;;;;13.10;98003.40;;;;108794;1269;41369;-57
2022/10/31 03:00:40;;;;;;;;;;;;;13.10;98008.60;;;;108729;1268;41173;-57
2022/10/31 03:03:21;;;;;;;;;;;;;13.10;98009.40;;;;109041;1264;41406;-56
2022/10/31 03:05:57;;;;;;;;;;;;;13.10;98006.80;;;;108971;1268;41154;-57
2022/10/31 03:08:27;;;;;;;;;;;;;13.10;98008.00;;;;108989;1267;41152;-57
2022/10/31 03:11:00;;;;;;;;;;;;;13.10;98005.20;;;;109045;1264;41131;-57
2022/10/31 03:13:30;;;;;;;;;;;;;13.08;98010.40;;;;109017;1268;41377;-57
2022/10/31 03:16:05;;;;;;;;;;;;;13.10;98004.60;;;;108999;1260;41193;-57
2022/10/31 03:18:44;;;;;;;;;;;;;13.04;98004.20;;;;109006;1267;41622;-57
2022/10/31 03:21:35;;;;;;;;;;;;;13.00;98013.60;;;;108971;1268;41146;-57
2022/10/31 03:24:07;;;;;;;;;;;;;13.00;98008.40;;;;108890;1268;41612;-59
2022/10/31 03:26:39;;;;;;;;;;;;;13.00;98013.20;;;;108755;1269;41157;-58
2022/10/31 03:29:12;;;;;;;;;;;;;13.00;98009.20;;;;109050;1268;42283;-58
2022/10/31 03:31:50;;;;;;;;;;;;;13.00;98007.00;;;;108636;1268;41597;-57
2022/10/31 03:34:22;;;;;;;;;;;;;13.00;98003.60;;;;109013;1268;41214;-57
2022/10/31 03:36:55;;;;;;;;;;;;;13.00;98004.40;;;;109028;1268;41148;-57
2022/10/31 03:39:26;;;;;;;;;;;;;13.00;98005.00;;;;109033;1268;41672;-57
2022/10/31 03:42:09;;;;;;;;;;;;;13.00;98010.80;;;;109093;1267;41166;-57
2022/10/31 03:44:39;;;;;;;;;;;;;13.00;98015.00;;;;109022;1266;41144;-57
2022/10/31 03:47:09;;;;;;;;;;;;;13.00;98015.20;;;;108971;1268;41684;-57
2022/10/31 03:49:39;;;;;;;;;;;;;13.00;98019.00;;;;109001;1268;41708;-57
2022/10/31 03:52:29;;;;;;;;;;;;;13.00;98017.40;;;;108963;1268;41131;-57
2022/10/31 03:55:00;;;;;;;;;;;;;13.00;98025.40;;;;109068;1266;41129;-57
2022/10/31 03:57:34;;;;;;;;;;;;;13.00;98024.80;;;;109078;1267;41141;-57
2022/10/31 04:00:06;;;;;;;;;;;;;13.00;98025.80;;;;109043;1268;41211;-58
2022/10/31 04:02:47;;;;;;;;;;;;;13.00;98028.80;;;;109072;1266;41137;-58
2022/10/31 04:05:17;;;;;;;;;;;;;13.00;98031.60;;;;109062;1267;41527;-58
2022/10/31 04:07:46;;;;;;;;;;;;;13.00;98032.40;;;;109021;1268;41611;-58
2022/10/31 04:10:17;;;;;;;;;;;;;13.00;98037.00;;;;109026;1268;41157;-57
2022/10/31 04:12:48;;;;;;;;;;;;;13.00;98038.80;;;;108744;1268;41139;-57
2022/10/31 04:15:21;;;;;;;;;;;;;13.00;98037.00;;;;108968;1268;41146;-57
2022/10/31 04:17:50;;;;;;;;;;;;;13.00;98034.80;;;;108960;1268;41156;-57
2022/10/31 04:20:29;;;;;;;;;;;;;13.00;98035.60;;;;108787;1268;41154;-57
2022/10/31 04:22:58;;;;;;;;;;;;;12.90;98037.80;;;;109056;1268;41328;-59
2022/10/31 04:25:27;;;;;;;;;;;;;12.90;98036.40;;;;108998;1264;41290;-57
2022/10/31 04:27:56;;;;;;;;;;;;;12.90;98042.80;;;;109064;1268;41281;-58
2022/10/31 04:30:26;;;;;;;;;;;;;12.90;98039.40;;;;109023;1268;41759;-57
2022/10/31 04:32:55;;;;;;;;;;;;;12.90;98040.20;;;;109026;1266;41629;-57
2022/10/31 04:35:25;;;;;;;;;;;;;12.90;98041.20;;;;108956;1268;42364;-56
2022/10/31 04:37:55;;;;;;;;;;;;;12.90;98040.20;;;;108796;1268;41161;-56
2022/10/31 04:40:24;;;;;;;;;;;;;12.90;98042.60;;;;108957;1268;42097;-56
2022/10/31 04:42:56;;;;;;;;;;;;;12.88;98042.20;;;;108968;1268;41148;-56
2022/10/31 04:45:26;;;;;;;;;;;;;12.88;98035.60;;;;109039;1268;41172;-56
2022/10/31 04:47:54;;;;;;;;;;;;;12.90;98041.80;;;;109080;1266;41921;-57
2022/10/31 04:50:23;;;;;;;;;;;;;12.90;98040.60;;;;109004;1266;42151;-57
2022/10/31 04:52:52;;;;;;;;;;;;;12.88;98045.00;;;;109044;1263;41194;-58
2022/10/31 04:55:25;;;;;;;;;;;;;12.88;98042.80;;;;108984;1268;41152;-56
2022/10/31 04:58:13;;;;;;;;;;;;;12.88;98042.80;;;;108970;1268;41818;-56
2022/10/31 05:00:51;;;;;;;;;;;;;12.90;98043.40;;;;109009;1268;41280;-57
2022/10/31 05:03:20;;;;;;;;;;;;;12.90;98042.80;;;;108993;1265;41246;-56
2022/10/31 05:05:50;;;;;;;;;;;;;12.90;98043.60;;;;108923;1268;41682;-56
2022/10/31 05:08:19;;;;;;;;;;;;;12.90;98039.80;;;;109004;1268;41141;-56
2022/10/31 05:10:50;;;;;;;;;;;;;12.90;98036.40;;;;108758;1266;41166;-57
2022/10/31 05:13:18;;;;;;;;;;;;;12.90;98047.40;;;;108993;1268;41427;-56
2022/10/31 05:16:17;;;;;;;;;;;;;12.90;98047.80;;;;108993;1268;41612;-58
2022/10/31 05:19:18;;;;;;;;;;;;;12.90;98045.40;;;;108978;1268;41141;-56
2022/10/31 05:22:05;;;;;;;;;;;;;12.90;98052.60;;;;108941;1268;41167;-56
2022/10/31 05:24:35;;;;;;;;;;;;;12.90;98056.60;;;;108794;1268;41229;-57
2022/10/31 05:27:04;;;;;;;;;;;;;12.90;98057.40;;;;108985;1268;41165;-57
2022/10/31 05:29:35;;;;;;;;;;;;;12.84;98061.00;;;;108752;1271;41148;-57
2022/10/31 05:32:04;;;;;;;;;;;;;12.80;98055.80;;;;109020;1268;41149;-56
2022/10/31 05:34:51;;;;;;;;;;;;;12.80;98064.00;;;;109034;1268;41144;-56
2022/10/31 05:37:55;;;;;;;;;;;;;12.80;98067.20;;;;108950;1269;42545;-56
2022/10/31 05:40:24;;;;;;;;;;;;;12.80;98071.80;;;;108974;1268;42491;-56
2022/10/31 05:42:54;;;;;;;;;;;;;12.80;98070.60;;;;108951;1268;41156;-57
2022/10/31 05:45:23;;;;;;;;;;;;;12.80;98078.20;;;;109041;1268;41150;-57
2022/10/31 05:48:01;;;;;;;;;;;;;12.80;98075.40;;;;109003;1268;41258;-57
2022/10/31 05:50:49;;;;;;;;;;;;;12.80;98072.00;;;;109002;1268;42114;-57
2022/10/31 05:53:17;;;;;;;;;;;;;12.80;98072.80;;;;108925;1266;41886;-57
2022/10/31 05:55:46;;;;;;;;;;;;;12.80;98077.00;;;;108749;1269;41602;-56
2022/10/31 05:58:19;;;;;;;;;;;;;12.80;98078.80;;;;109038;1268;41223;-56
2022/10/31 06:00:57;;;;;;;;;;;;;12.74;98081.60;;;;108937;1268;41700;-57
2022/10/31 06:03:25;;;;;;;;;;;;;12.76;98082.00;;;;109072;1267;41157;-57
2022/10/31 06:05:56;;;;;;;;;;;;;12.70;98083.40;;;;109028;1267;41263;-57
2022/10/31 06:08:27;;;;;;;;;;;;;12.70;98085.20;;;;109051;1267;42301;-57
2022/10/31 06:10:56;;;;;;;;;;;;;12.70;98090.80;;;;109043;1268;41144;-57
2022/10/31 06:13:45;;;;;;;;;;;;;12.76;98094.40;;;;108950;1268;41414;-58
2022/10/31 06:16:20;;;;;;;;;;;;;12.80;98094.40;;;;109016;1267;41156;-57
2022/10/31 06:18:49;;;;;;;;;;;;;12.80;98094.80;;;;108948;1268;42125;-58
2022/10/31 06:21:18;;;;;;;;;;;;;12.80;98097.60;;;;108969;1268;41943;-59
2022/10/31 06:23:48;;;;;;;;;;;;;12.80;98097.40;;;;108995;1266;41227;-59
2022/10/31 06:26:40;;;;;;;;;;;;;12.90;98099.20;;;;109018;1268;41243;-57
2022/10/31 06:29:09;;;;;;;;;;;;;12.84;98100.00;;;;108870;1269;41325;-57
2022/10/31 06:31:57;;;;;;;;;;;;;12.80;98103.80;;;;108873;1268;41380;-57
2022/10/31 06:34:25;;;;;;;;;;;;;12.86;98109.00;;;;108673;1266;42385;-57
2022/10/31 06:36:54;;;;;;;;;;;;;12.82;98106.20;;;;108982;1268;41152;-57
2022/10/31 06:39:24;;;;;;;;;;;;;12.80;98103.40;;;;109032;1266;41231;-59
2022/10/31 06:41:53;;;;;;;;;;;;;12.80;98103.80;;;;108970;1268;41396;-57
2022/10/31 06:44:22;;;;;;;;;;;;;12.80;98104.60;;;;109056;1267;41157;-57
2022/10/31 06:46:59;;;;;;;;;;;;;12.80;98110.20;;;;108916;1268;42672;-57
2022/10/31 06:49:48;;;;;;;;;;;;;12.80;98116.20;;;;108979;1268;41702;-57
2022/10/31 06:52:17;;;;;;;;;;;;;12.80;98118.40;;;;108709;1268;41145;-57
2022/10/31 06:54:46;;;;;;;;;;;;;12.80;98114.20;;;;108944;1268;41724;-57
2022/10/31 06:57:15;;;;;;;;;;;;;12.80;98119.60;;;;109009;1268;41889;-57
2022/10/31 06:59:44;;;;;;;;;;;;;12.80;98118.00;;;;109007;1268;41585;-57
2022/10/31 07:02:21;;;;;;;;;;;;;12.80;98122.00;;;;108969;1268;41175;-58
2022/10/31 07:04:51;;;;;;;;;;;;;12.80;98116.20;;;;109032;1267;41930;-57
2022/10/31 07:07:21;;;;;;;;;;;;;12.90;98116.00;;;;108948;1268;41145;-58
2022/10/31 07:09:50;;;;;;;;;;;;;12.90;98118.60;;;;109024;1268;41274;-57
2022/10/31 07:12:31;;;;;;;;;;;;;12.90;98113.80;;;;108973;1268;41376;-57
2022/10/31 07:15:00;;;;;;;;;;;;;12.90;98118.40;;;;108629;1271;41274;-57
2022/10/31 07:17:29;;;;;;;;;;;;;12.90;98121.00;;;;108958;1268;41392;-57
2022/10/31 07:20:00;;;;;;;;;;;;;12.80;98119.00;;;;108706;1268;41155;-57
2022/10/31 07:22:34;;;;;;;;;;;;;12.80;98114.00;;;;108789;1268;41283;-57
2022/10/31 07:25:03;;;;;;;;;;;;;12.80;98115.60;;;;108832;1268;41367;-57
2022/10/31 07:27:51;;;;;;;;;;;;;12.80;98116.20;;;;108701;1267;322802;-57
2022/10/31 07:30:20;;;;;;;;;;;;;12.80;98109.60;;;;109031;1268;41402;-62
2022/10/31 07:32:50;;;;;;;;;;;;;12.84;98108.60;;;;109000;1268;41973;-57
2022/10/31 07:35:20;;;;;;;;;;;;;12.90;98111.80;;;;109011;1268;41181;-57
2022/10/31 07:37:56;;;;;;;;;;;;;12.90;98112.20;;;;108979;1268;41144;-57
2022/10/31 07:40:26;;;;;;;;;;;;;12.90;98110.20;;;;109014;1268;41158;-57
2022/10/31 07:42:54;;;;;;;;;;;;;13.00;98109.40;;;;108995;1268;42393;-58
2022/10/31 07:45:50;;;;;;;;;;;;;13.00;98109.80;;;;108825;1267;41149;-57
2022/10/31 07:48:48;;;;;;;;;;;;;13.00;98112.60;;;;108620;1271;41483;-57
2022/10/31 07:51:35;;;;;;;;;;;;;13.00;98113.40;;;;108960;1268;41158;-57
2022/10/31 07:54:29;;;;;;;;;;;;;13.00;98114.40;;;;108834;1268;41153;-57
2022/10/31 07:56:57;;;;;;;;;;;;;13.00;98109.60;;;;109020;1268;41619;-57
2022/10/31 07:59:27;;;;;;;;;;;;;13.00;98112.60;;;;109004;1267;41192;-57
2022/10/31 08:01:55;;;;;;;;;;;;;13.06;98114.20;;;;109016;1268;41137;-57
2022/10/31 08:04:32;;;;;;;;;;;;;13.08;98118.40;;;;109046;1268;41681;-57
2022/10/31 08:07:20;;;;;;;;;;;;;13.10;98117.20;;;;109009;1268;41142;-57
2022/10/31 08:09:53;;;;;;;;;;;;;13.10;98121.80;;;;109000;1267;41224;-57
2022/10/31 08:12:24;;;;;;;;;;;;;13.10;98117.20;;;;109049;1266;42589;-58
2022/10/31 08:14:53;;;;;;;;;;;;;13.16;98123.80;;;;109027;1268;41227;-57
2022/10/31 08:17:22;;;;;;;;;;;;;13.20;98123.00;;;;108770;1271;41855;-57
2022/10/31 08:20:01;;;;;;;;;;;;;13.20;98126.20;;;;109016;1268;41163;-57
2022/10/31 08:22:33;;;;;;;;;;;;;13.20;98126.60;;;;109000;1266;41412;-57
2022/10/31 08:25:04;;;;;;;;;;;;;13.20;98126.80;;;;109013;1268;41141;-57
2022/10/31 08:27:33;;;;;;;;;;;;;13.20;98128.40;;;;109005;1268;41226;-55
2022/10/31 08:30:01;;;;;;;;;;;;;13.20;98134.80;;;;108999;1268;41167;-57
2022/10/31 08:32:31;;;;;;;;;;;;;13.28;98136.80;;;;109001;1268;41237;-56
2022/10/31 08:35:19;;;;;;;;;;;;;13.30;98134.80;;;;108964;1268;41157;-55
2022/10/31 08:38:25;;;;;;;;;;;;;13.30;98133.80;;;;108996;1268;41276;-56
2022/10/31 08:40:55;;;;;;;;;;;;;13.28;98134.40;;;;109005;1268;41241;-57
2022/10/31 08:43:24;;;;;;;;;;;;;13.30;98136.20;;;;108984;1269;41174;-57
2022/10/31 08:45:54;;;;;;;;;;;;;13.28;98136.60;;;;108836;1268;41481;-57
2022/10/31 08:48:29;;;;;;;;;;;;;13.20;98142.80;;;;108983;1268;41185;-57
2022/10/31 08:51:00;;;;;;;;;;;;;13.24;98142.80;;;;108933;1268;41145;-55
2022/10/31 08:53:29;;;;;;;;;;;;;13.30;98140.60;;;;108967;1268;41171;-55
2022/10/31 08:56:36;;;;;;;;;;;;;13.30;98139.80;;;;108328;1274;41159;-55
2022/10/31 08:59:12;;;;;;;;;;;;;13.30;98143.20;;;;108355;1275;41151;-56
2022/10/31 09:02:13;;;;;;;;;;;;;13.28;98143.40;;;;108809;1268;41878;-57
2022/10/31 09:04:42;;;;;;;;;;;;;13.30;98147.40;;;;108807;1267;41546;-56
2022/10/31 09:07:10;;;;;;;;;;;;;13.30;98154.20;;;;108899;1269;41239;-59
2022/10/31 09:09:48;;;;;;;;;;;;;13.30;98152.60;;;;109049;1268;41228;-57
2022/10/31 09:12:17;;;;;;;;;;;;;13.30;98151.40;;;;108771;1267;41506;-57
2022/10/31 09:15:06;;;;;;;;;;;;;13.30;98149.60;;;;108958;1268;41599;-57
2022/10/31 09:17:46;;;;;;;;;;;;;13.30;98151.00;;;;108962;1268;41146;-57
2022/10/31 09:20:22;;;;;;;;;;;;;13.30;98153.20;;;;108904;1269;41165;-58
2022/10/31 09:22:59;;;;;;;;;;;;;13.30;98154.00;;;;108976;1268;41606;-58
2022/10/31 09:25:28;;;;;;;;;;;;;13.30;98149.60;;;;109042;1268;41124;-56
2022/10/31 09:28:23;;;;;;;;;;;;;13.30;98154.00;;;;108974;1268;41186;-57
2022/10/31 09:30:52;;;;;;;;;;;;;13.30;98153.20;;;;108978;1267;41376;-58
2022/10/31 09:33:40;;;;;;;;;;;;;13.30;98157.60;;;;108997;1268;41604;-57
2022/10/31 09:36:27;;;;;;;;;;;;;13.40;98157.60;;;;108963;1268;41142;-57
2022/10/31 09:38:56;;;;;;;;;;;;;13.40;98155.00;;;;108954;1268;41706;-57
2022/10/31 09:41:31;;;;;;;;;;;;;13.40;98160.20;;;;108661;1263;41147;-57
2022/10/31 09:43:59;;;;;;;;;;;;;13.40;98158.60;;;;108746;1272;41588;-57
2022/10/31 09:46:47;;;;;;;;;;;;;13.40;98156.80;;;;108748;1269;41166;-57
2022/10/31 09:49:21;;;;;;;;;;;;;13.40;98156.80;;;;108988;1268;41147;-57
2022/10/31 09:51:51;;;;;;;;;;;;;13.40;98158.80;;;;108927;1269;41616;-58
2022/10/31 09:54:37;;;;;;;;;;;;;13.40;98160.20;;;;108944;1269;41235;-58
2022/10/31 09:57:06;;;;;;;;;;;;;13.40;98158.60;;;;109014;1265;41130;-58
2022/10/31 09:59:40;;;;;;;;;;;;;13.40;98164.40;;;;108943;1269;41137;-57
2022/10/31 10:02:12;;;;;;;;;;;;;13.50;98162.60;;;;109005;1267;41168;-57
2022/10/31 10:04:45;;;;;;;;;;;;;13.52;98162.20;;;;109001;1268;41662;-57
2022/10/31 10:07:22;;;;;;;;;;;;;13.50;98167.00;;;;108978;1268;41228;-57
2022/10/31 10:09:54;;;;;;;;;;;;;13.50;98161.60;;;;109014;1268;41239;-57
2022/10/31 10:13:05;;;;;;;;;;;;;13.50;98159.60;;;;108962;1268;41232;-57
2022/10/31 10:15:39;;;;;;;;;;;;;13.50;98157.40;;;;108990;1268;41707;-57
2022/10/31 10:18:08;;;;;;;;;;;;;13.50;98158.80;;;;109022;1268;41141;-56
2022/10/31 10:20:39;;;;;;;;;;;;;13.50;98158.80;;;;108957;1269;41145;-57
2022/10/31 10:23:23;;;;;;;;;;;;;13.54;98155.60;;;;108970;1268;41146;-57
2022/10/31 10:25:54;;;;;;;;;;;;;13.60;98153.60;;;;108999;1268;41191;-56
2022/10/31 10:28:27;;;;;;;;;;;;;13.60;98148.00;;;;108815;1269;41598;-57
2022/10/31 10:30:57;;;;;;;;;;;;;13.60;98148.60;;;;108967;1268;41923;-57
2022/10/31 10:33:35;;;;;;;;;;;;;13.60;98146.20;;;;109041;1268;41142;-57
2022/10/31 10:36:04;;;;;;;;;;;;;13.60;98148.00;;;;108942;1268;41146;-57
2022/10/31 10:38:45;;;;;;;;;;;;;13.60;98139.60;;;;108988;1269;42287;-57
2022/10/31 10:41:16;;;;;;;;;;;;;13.60;98142.00;;;;109095;1268;42312;-57
2022/10/31 10:43:45;;;;;;;;;;;;;13.60;98141.20;;;;109063;1268;41459;-56
2022/10/31 10:49:06;;;;;;;;;;;;;13.68;98139.60;;;;109027;1266;41955;-58
2022/10/31 10:51:39;;;;;;;;;;;;;13.70;98136.60;;;;109036;1268;41924;-57
2022/10/31 10:54:31;;;;;;;;;;;;;13.70;98135.00;;;;109039;1267;41149;-57
2022/10/31 10:57:06;;;;;;;;;;;;;13.76;98134.40;;;;109018;1268;41168;-57
2022/10/31 10:59:34;;;;;;;;;;;;;13.80;98136.00;;;;109055;1268;41234;-57
2022/10/31 11:02:03;;;;;;;;;;;;;13.80;98128.00;;;;108953;1268;41235;-57
2022/10/31 11:04:35;;;;;;;;;;;;;13.82;98121.60;;;;109008;1268;41162;-57
2022/10/31 11:07:04;;;;;;;;;;;;;13.90;98125.20;;;;108991;1267;41140;-57
2022/10/31 11:09:33;;;;;;;;;;;;;13.90;98121.80;;;;109046;1268;42467;-57
2022/10/31 11:12:08;;;;;;;;;;;;;13.88;98121.80;;;;109004;1267;41166;-57
2022/10/31 11:15:07;;;;;;;;;;;;;13.90;98127.20;;;;108961;1268;42311;-57
2022/10/31 11:17:37;;;;;;;;;;;;;13.90;98122.00;;;;108773;1268;41153;-56
2022/10/31 11:20:28;;;;;;;;;;;;;14.00;98123.40;;;;108979;1260;41167;-55
2022/10/31 11:23:04;;;;;;;;;;;;;14.00;98127.20;;;;109008;1268;41726;-56
2022/10/31 11:25:33;;;;;;;;;;;;;13.90;98129.40;;;;109055;1267;41315;-55
2022/10/31 11:28:02;;;;;;;;;;;;;13.88;98129.20;;;;108813;1271;41173;-57
2022/10/31 11:30:35;;;;;;;;;;;;;13.80;98125.80;;;;109072;1267;41927;-57
2022/10/31 11:33:04;;;;;;;;;;;;;13.80;98126.80;;;;109018;1268;41162;-57
2022/10/31 11:35:33;;;;;;;;;;;;;13.84;98126.00;;;;108982;1265;41164;-57
2022/10/31 11:38:05;;;;;;;;;;;;;13.90;98121.20;;;;109024;1268;41154;-57
2022/10/31 11:40:33;;;;;;;;;;;;;13.90;98113.20;;;;109064;1268;41170;-57
2022/10/31 11:43:02;;;;;;;;;;;;;13.90;98112.00;;;;109034;1268;41152;-56
2022/10/31 11:45:30;;;;;;;;;;;;;13.98;98111.80;;;;108864;1268;41464;-56
2022/10/31 11:48:00;;;;;;;;;;;;;14.00;98116.40;;;;108953;1270;42364;-57
2022/10/31 11:50:39;;;;;;;;;;;;;14.10;98120.60;;;;108987;1266;41155;-57
2022/10/31 11:53:27;;;;;;;;;;;;;14.06;98114.80;;;;109042;1261;41203;-57
2022/10/31 11:56:04;;;;;;;;;;;;;14.00;98118.00;;;;109004;1270;42864;-57
2022/10/31 11:58:33;;;;;;;;;;;;;13.90;98115.60;;;;109036;1270;41145;-56
2022/10/31 12:01:01;;;;;;;;;;;;;14.00;98112.00;;;;108966;1271;41444;-57
2022/10/31 12:03:38;;;;;;;;;;;;;14.00;98113.80;;;;108997;1268;42515;-57
2022/10/31 12:06:12;;;;;;;;;;;;;14.10;98116.20;;;;109010;1270;41267;-57
2022/10/31 12:08:41;;;;;;;;;;;;;14.18;98110.60;;;;108976;1271;41161;-57
2022/10/31 12:11:28;;;;;;;;;;;;;14.20;98110.80;;;;108946;1271;41143;-57
2022/10/31 12:13:59;;;;;;;;;;;;;14.30;98111.00;;;;109022;1271;41311;-57
2022/10/31 12:16:31;;;;;;;;;;;;;14.30;98112.60;;;;109013;1269;42733;-57
2022/10/31 12:19:05;;;;;;;;;;;;;14.30;98111.20;;;;108974;1271;41499;-58
2022/10/31 12:21:39;;;;;;;;;;;;;14.30;98109.20;;;;108942;1271;41190;-58
2022/10/31 12:24:12;;;;;;;;;;;;;14.36;98111.60;;;;109154;1260;41160;-57
2022/10/31 12:26:40;;;;;;;;;;;;;14.40;98114.60;;;;108965;1270;41238;-57
2022/10/31 12:29:09;;;;;;;;;;;;;14.48;98109.60;;;;108983;1270;41697;-57
2022/10/31 12:31:43;;;;;;;;;;;;;14.50;98107.20;;;;108982;1271;41424;-57
2022/10/31 12:34:31;;;;;;;;;;;;;14.60;98104.60;;;;108917;1271;41865;-58
2022/10/31 12:37:01;;;;;;;;;;;;;14.60;98106.40;;;;109049;1266;42268;-58
2022/10/31 12:39:48;;;;;;;;;;;;;14.60;98105.80;;;;109026;1271;41146;-57
2022/10/31 12:42:19;;;;;;;;;;;;;14.60;98105.00;;;;109057;1271;41137;-57
2022/10/31 12:45:00;;;;;;;;;;;;;14.60;98102.60;;;;109042;1269;41242;-57
2022/10/31 12:47:28;;;;;;;;;;;;;14.60;98103.40;;;;108856;1270;41243;-57
2022/10/31 12:50:01;;;;;;;;;;;;;14.70;98101.00;;;;109001;1268;41240;-57
2022/10/31 12:52:33;;;;;;;;;;;;;14.70;98107.00;;;;108998;1269;41707;-57
2022/10/31 12:55:20;;;;;;;;;;;;;14.70;98104.40;;;;108953;1271;42678;-57
2022/10/31 12:57:54;;;;;;;;;;;;;14.70;98105.60;;;;108946;1264;41699;-57
2022/10/31 13:00:23;;;;;;;;;;;;;14.70;98103.20;;;;108786;1270;41169;-57
2022/10/31 13:03:12;;;;;;;;;;;;;14.70;98104.00;;;;108960;1270;41175;-57
2022/10/31 13:05:41;;;;;;;;;;;;;14.70;98098.20;;;;108953;1271;41144;-57
2022/10/31 13:08:15;;;;;;;;;;;;;14.70;98103.00;;;;108963;1272;42349;-57
2022/10/31 13:10:45;;;;;;;;;;;;;14.70;98100.40;;;;109064;1271;41601;-57
2022/10/31 13:13:45;;;;;;;;;;;;;14.74;98100.20;;;;109029;1268;41149;-57
2022/10/31 13:16:18;;;;;;;;;;;;;14.80;98103.60;;;;108722;1272;41703;-57
2022/10/31 13:18:52;;;;;;;;;;;;;14.80;98099.20;;;;108816;1271;41200;-56
2022/10/31 13:21:22;;;;;;;;;;;;;14.80;98094.20;;;;108956;1271;41697;-56
2022/10/31 13:23:53;;;;;;;;;;;;;14.80;98099.00;;;;109049;1270;41284;-56
2022/10/31 13:26:42;;;;;;;;;;;;;14.80;98096.60;;;;109071;1271;41145;-57
2022/10/31 13:29:20;;;;;;;;;;;;;14.80;98095.00;;;;108962;1269;41187;-56
2022/10/31 13:31:48;;;;;;;;;;;;;14.80;98094.00;;;;108997;1271;41147;-57
2022/10/31 13:34:16;;;;;;;;;;;;;14.80;98095.00;;;;109007;1271;41235;-57
2022/10/31 13:36:48;;;;;;;;;;;;;14.80;98095.40;;;;108988;1271;41178;-57
2022/10/31 13:39:16;;;;;;;;;;;;;14.80;98094.40;;;;109060;1271;41169;-57
2022/10/31 13:41:48;;;;;;;;;;;;;14.76;98091.40;;;;109059;1269;42176;-57
2022/10/31 13:44:21;;;;;;;;;;;;;14.70;98092.20;;;;109031;1269;41138;-57
2022/10/31 13:46:50;;;;;;;;;;;;;14.70;98087.80;;;;109044;1268;41138;-57
2022/10/31 13:49:24;;;;;;;;;;;;;14.70;98086.20;;;;109081;1268;41243;-58
2022/10/31 13:51:53;;;;;;;;;;;;;14.70;98082.40;;;;109024;1268;41285;-58
2022/10/31 13:54:23;;;;;;;;;;;;;14.70;98085.00;;;;109061;1268;42097;-55
2022/10/31 13:56:52;;;;;;;;;;;;;14.70;98080.60;;;;108921;1272;41836;-56
2022/10/31 13:59:21;;;;;;;;;;;;;14.70;98081.20;;;;108832;1267;41447;-56
2022/10/31 14:01:53;;;;;;;;;;;;;14.70;98082.60;;;;108944;1268;41572;-56
2022/10/31 14:04:29;;;;;;;;;;;;;14.70;98078.60;;;;108942;1263;41405;-56
2022/10/31 14:07:10;;;;;;;;;;;;;14.70;98078.00;;;;109035;1268;41757;-57
2022/10/31 14:09:41;;;;;;;;;;;;;14.70;98079.00;;;;108964;1268;41140;-57
2022/10/31 14:12:23;;;;;;;;;;;;;14.60;98081.60;;;;108965;1268;41702;-57